createdAt,value
2022-08-26T00:02:26.048Z,75.80
2022-08-26T00:04:54.114Z,76.00
2022-08-26T00:07:21.450Z,76.00
2022-08-26T00:09:49.015Z,76.10
2022-08-26T00:12:17.796Z,76.00
2022-08-26T00:14:44.873Z,76.10
2022-08-26T00:17:12.126Z,76.20
2022-08-26T00:19:40.087Z,76.40
2022-08-26T00:22:07.434Z,76.40
2022-08-26T00:24:34.891Z,76.50
2022-08-26T00:27:02.017Z,76.50
2022-08-26T00:29:29.399Z,76.40
2022-08-26T00:31:58.960Z,76.30
2022-08-26T00:34:25.936Z,76.40
2022-08-26T00:36:52.893Z,76.50
2022-08-26T00:39:20.409Z,76.50
2022-08-26T00:41:47.798Z,76.40
2022-08-26T00:44:14.787Z,76.60
2022-08-26T00:46:46.762Z,76.70
2022-08-26T00:49:26.873Z,76.90
2022-08-26T00:51:58.020Z,76.80
2022-08-26T00:54:27.528Z,76.70
2022-08-26T00:57:02.746Z,76.80
2022-08-26T00:59:32.728Z,76.80
2022-08-26T01:02:00.331Z,76.90
2022-08-26T01:04:29.932Z,77.00
2022-08-26T01:06:57.787Z,77.00
2022-08-26T01:09:24.768Z,76.90
2022-08-26T01:11:53.168Z,76.70
2022-08-26T01:14:20.290Z,76.90
2022-08-26T01:16:47.720Z,77.10
2022-08-26T01:19:23.606Z,77.10
2022-08-26T01:21:55.994Z,76.90
2022-08-26T01:24:26.159Z,76.70
2022-08-26T01:26:56.858Z,76.80
2022-08-26T01:29:23.912Z,77.00
2022-08-26T01:31:55.410Z,77.10
2022-08-26T01:34:25.561Z,77.30
2022-08-26T01:36:54.627Z,77.20
2022-08-26T01:39:21.917Z,77.10
2022-08-26T01:41:53.508Z,77.10
2022-08-26T01:44:22.746Z,77.20
2022-08-26T01:46:49.921Z,77.30
2022-08-26T01:49:18.283Z,77.40
2022-08-26T01:51:45.235Z,77.40
2022-08-26T01:54:13.908Z,77.40
2022-08-26T01:56:41.067Z,77.60
2022-08-26T01:59:09.443Z,77.70
2022-08-26T02:01:37.828Z,77.70
2022-08-26T02:04:24.867Z,77.60
2022-08-26T02:06:52.357Z,77.50
2022-08-26T02:09:19.398Z,77.50
2022-08-26T02:11:47.362Z,77.60
2022-08-26T02:14:23.379Z,77.60
2022-08-26T02:16:54.059Z,77.50
2022-08-26T02:19:22.059Z,77.80
2022-08-26T02:21:55.656Z,77.70
2022-08-26T02:24:23.624Z,77.60
2022-08-26T02:26:54.537Z,77.60
2022-08-26T02:29:33.088Z,77.40
2022-08-26T02:32:00.050Z,77.40
2022-08-26T02:34:28.262Z,77.50
2022-08-26T02:37:01.439Z,77.50
2022-08-26T02:39:29.697Z,77.60
2022-08-26T02:41:58.658Z,77.80
2022-08-26T02:44:27.046Z,77.70
2022-08-26T02:46:54.775Z,77.60
2022-08-26T02:49:22.570Z,77.50
2022-08-26T02:51:52.932Z,77.50
2022-08-26T02:54:25.265Z,77.50
2022-08-26T02:56:52.424Z,77.50
2022-08-26T02:59:19.555Z,77.50
2022-08-26T03:01:51.689Z,77.50
2022-08-26T03:04:18.685Z,77.60
2022-08-26T03:06:47.044Z,77.70
2022-08-26T03:09:19.990Z,77.80
2022-08-26T03:11:47.511Z,78.00
2022-08-26T03:14:14.677Z,78.30
2022-08-26T03:16:41.753Z,78.10
2022-08-26T03:19:08.869Z,78.10
2022-08-26T03:21:36.184Z,78.00
2022-08-26T03:24:03.571Z,78.00
2022-08-26T03:26:30.892Z,78.20
2022-08-26T03:29:16.704Z,78.30
2022-08-26T03:31:47.025Z,78.20
2022-08-26T03:34:14.442Z,78.20
2022-08-26T03:36:41.746Z,78.10
2022-08-26T03:39:08.694Z,78.00
2022-08-26T03:41:37.693Z,78.10
2022-08-26T03:44:05.455Z,78.40
2022-08-26T03:46:35.585Z,78.50
2022-08-26T03:49:05.590Z,78.60
2022-08-26T03:51:32.837Z,78.60
2022-08-26T03:54:03.111Z,78.60
2022-08-26T03:56:30.588Z,78.80
2022-08-26T03:58:57.639Z,78.90
2022-08-26T04:01:25.651Z,78.80
2022-08-26T04:04:00.248Z,78.70
2022-08-26T04:06:27.793Z,78.70
2022-08-26T04:08:56.206Z,78.70
2022-08-26T04:11:24.675Z,78.70
2022-08-26T04:13:52.135Z,78.80
2022-08-26T04:16:20.475Z,78.70
2022-08-26T04:18:47.965Z,78.70
2022-08-26T04:21:15.374Z,78.80
2022-08-26T04:23:47.844Z,78.80
2022-08-26T04:26:16.129Z,79.10
2022-08-26T04:29:03.256Z,79.10
2022-08-26T04:31:30.895Z,79.30
2022-08-26T04:33:58.139Z,79.20
2022-08-26T04:36:26.296Z,79.20
2022-08-26T04:38:55.057Z,79.30
2022-08-26T04:41:22.177Z,79.30
2022-08-26T04:43:49.479Z,79.10
2022-08-26T04:46:18.272Z,79.10
2022-08-26T04:48:46.183Z,79.10
2022-08-26T04:51:13.135Z,78.80
2022-08-26T04:53:40.129Z,78.50
2022-08-26T04:56:08.706Z,78.40
2022-08-26T04:58:38.867Z,78.30
2022-08-26T05:01:06.015Z,78.30
2022-08-26T05:03:33.270Z,78.30
2022-08-26T05:06:00.344Z,78.10
2022-08-26T05:08:27.743Z,78.00
2022-08-26T05:10:57.653Z,77.90
2022-08-26T05:13:25.976Z,77.60
2022-08-26T05:15:53.119Z,77.50
2022-08-26T05:18:23.605Z,77.50
2022-08-26T05:20:51.592Z,77.20
2022-08-26T05:23:23.280Z,77.00
2022-08-26T05:25:50.595Z,76.70
2022-08-26T05:28:18.040Z,76.40
2022-08-26T05:30:45.072Z,76.10
2022-08-26T05:33:12.135Z,76.10
2022-08-26T05:35:39.939Z,76.00
2022-08-26T05:38:12.237Z,76.00
2022-08-26T05:40:41.074Z,76.00
2022-08-26T05:43:11.694Z,76.00
2022-08-26T05:45:43.540Z,75.60
2022-08-26T05:48:13.105Z,75.30
2022-08-26T05:50:46.943Z,75.00
2022-08-26T05:53:14.291Z,74.70
2022-08-26T05:55:48.379Z,74.60
2022-08-26T05:58:15.580Z,74.50
2022-08-26T06:00:46.530Z,74.50
2022-08-26T06:03:13.454Z,74.20
2022-08-26T06:05:40.751Z,74.10
2022-08-26T06:08:19.211Z,73.90
2022-08-26T06:10:51.202Z,73.70
2022-08-26T06:13:20.090Z,73.50
2022-08-26T06:15:48.133Z,73.40
2022-08-26T06:18:16.162Z,73.10
2022-08-26T06:20:57.456Z,72.60
2022-08-26T06:23:44.555Z,72.50
2022-08-26T06:26:11.576Z,72.30
2022-08-26T06:28:38.555Z,72.30
2022-08-26T06:31:06.390Z,72.30
2022-08-26T06:33:33.791Z,72.10
2022-08-26T06:36:01.629Z,71.60
2022-08-26T06:38:28.876Z,71.40
2022-08-26T06:40:59.362Z,71.30
2022-08-26T06:43:27.370Z,70.90
2022-08-26T06:46:05.939Z,70.60
2022-08-26T06:48:34.477Z,70.40
2022-08-26T06:51:05.440Z,69.90
2022-08-26T06:53:32.458Z,69.60
2022-08-26T06:55:59.426Z,69.30
2022-08-26T06:58:26.359Z,68.80
2022-08-26T07:00:53.466Z,68.30
2022-08-26T07:03:22.301Z,68.00
2022-08-26T07:05:49.534Z,67.60
2022-08-26T07:08:22.772Z,67.20
2022-08-26T07:10:51.028Z,66.30
2022-08-26T07:13:30.784Z,65.00
2022-08-26T07:15:58.304Z,64.10
2022-08-26T07:18:31.412Z,63.70
2022-08-26T07:20:59.057Z,62.80
2022-08-26T07:23:26.442Z,62.30
2022-08-26T07:25:54.850Z,62.40
2022-08-26T07:28:23.112Z,62.30
2022-08-26T07:30:50.224Z,61.50
2022-08-26T07:33:18.512Z,60.90
2022-08-26T07:35:46.518Z,60.70
2022-08-26T07:38:13.890Z,60.30
2022-08-26T07:40:41.385Z,59.70
2022-08-26T07:43:10.093Z,59.20
2022-08-26T07:45:37.424Z,59.40
2022-08-26T07:48:05.525Z,59.50
2022-08-26T07:50:48.848Z,59.70
2022-08-26T07:53:18.224Z,59.50
2022-08-26T07:55:46.972Z,59.20
2022-08-26T07:58:15.544Z,59.10
2022-08-26T08:00:42.806Z,58.80
2022-08-26T08:03:10.407Z,58.50
2022-08-26T08:05:37.633Z,58.70
2022-08-26T08:08:27.223Z,58.70
2022-08-26T08:10:55.751Z,58.70
2022-08-26T08:13:23.000Z,58.60
2022-08-26T08:15:50.653Z,57.90
2022-08-26T08:18:20.473Z,58.20
2022-08-26T08:21:04.803Z,57.30
2022-08-26T08:23:35.668Z,57.30
2022-08-26T08:26:03.516Z,57.60
2022-08-26T08:28:30.607Z,57.50
2022-08-26T08:30:58.435Z,56.50
2022-08-26T08:33:26.806Z,55.90
2022-08-26T08:35:54.905Z,56.20
2022-08-26T08:38:21.935Z,55.80
2022-08-26T08:40:49.075Z,55.40
2022-08-26T08:43:37.619Z,55.70
2022-08-26T08:46:08.595Z,55.20
2022-08-26T08:48:37.371Z,55.10
2022-08-26T08:51:07.998Z,54.80
2022-08-26T08:53:37.707Z,54.50
2022-08-26T08:56:04.818Z,54.60
2022-08-26T08:58:47.157Z,53.50
2022-08-26T09:01:35.269Z,53.20
2022-08-26T09:04:25.747Z,53.40
2022-08-26T09:06:54.127Z,52.90
2022-08-26T09:09:23.498Z,52.90
2022-08-26T09:11:50.512Z,52.30
2022-08-26T09:14:33.962Z,52.30
2022-08-26T09:17:14.413Z,52.00
2022-08-26T09:19:47.169Z,51.00
2022-08-26T09:22:27.550Z,50.90
2022-08-26T09:24:54.491Z,50.70
2022-08-26T09:27:38.899Z,50.20
2022-08-26T09:30:07.181Z,50.10
2022-08-26T09:32:40.374Z,50.00
2022-08-26T09:35:09.446Z,47.90
2022-08-26T09:40:16.584Z,47.70
2022-08-26T09:42:44.321Z,47.70
2022-08-26T09:45:12.948Z,47.40
2022-08-26T09:47:41.739Z,47.70
2022-08-26T09:50:29.202Z,47.50
2022-08-26T09:53:09.838Z,48.00
2022-08-26T09:55:42.969Z,48.50
2022-08-26T09:58:13.820Z,47.80
2022-08-26T10:00:42.361Z,47.50
2022-08-26T10:03:17.359Z,47.20
2022-08-26T10:05:56.936Z,47.50
2022-08-26T10:08:28.777Z,47.80
2022-08-26T10:10:57.135Z,47.20
2022-08-26T10:13:26.017Z,47.30
2022-08-26T10:16:04.347Z,46.70
2022-08-26T10:18:41.121Z,46.30
2022-08-26T10:21:12.339Z,45.20
2022-08-26T10:26:13.719Z,46.20
2022-08-26T10:28:44.212Z,45.70
2022-08-26T10:31:27.481Z,45.80
2022-08-26T10:34:00.126Z,46.10
2022-08-26T10:37:10.837Z,46.00
2022-08-26T10:39:58.627Z,44.80
2022-08-26T10:42:37.747Z,45.20
2022-08-26T10:45:11.786Z,44.80
2022-08-26T10:47:49.827Z,44.80
2022-08-26T10:50:18.141Z,44.60
2022-08-26T10:52:58.417Z,44.50
2022-08-26T10:55:30.744Z,43.90
2022-08-26T10:58:26.653Z,43.10
2022-08-26T11:01:16.840Z,43.20
2022-08-26T11:03:49.842Z,43.20
2022-08-26T11:06:24.723Z,42.50
2022-08-26T11:08:53.308Z,42.90
2022-08-26T11:11:38.897Z,42.20
2022-08-26T11:14:07.027Z,42.40
2022-08-26T11:16:34.426Z,41.50
2022-08-26T11:19:02.223Z,41.90
2022-08-26T11:21:49.413Z,42.20
2022-08-26T11:24:38.384Z,41.80
2022-08-26T11:27:09.086Z,42.40
2022-08-26T11:30:03.778Z,41.80
2022-08-26T11:32:33.994Z,42.90
2022-08-26T11:35:02.702Z,43.60
2022-08-26T11:37:32.543Z,43.20
2022-08-26T11:40:01.352Z,43.40
2022-08-26T11:42:41.677Z,43.10
2022-08-26T11:45:16.060Z,43.30
2022-08-26T11:47:43.349Z,43.60
2022-08-26T11:50:12.484Z,42.80
2022-08-26T11:52:40.758Z,43.20
2022-08-26T11:55:09.568Z,43.20
2022-08-26T11:57:41.417Z,43.30
2022-08-26T12:00:14.308Z,42.90
2022-08-26T12:02:43.816Z,43.60
2022-08-26T12:05:12.439Z,43.40
2022-08-26T12:07:42.522Z,42.10
2022-08-26T12:10:10.231Z,41.70
2022-08-26T12:12:40.952Z,40.70
2022-08-26T12:15:14.299Z,40.80
2022-08-26T12:17:42.315Z,41.00
2022-08-26T12:20:31.060Z,41.50
2022-08-26T12:23:01.504Z,41.40
2022-08-26T12:25:28.776Z,39.80
2022-08-26T12:28:09.279Z,40.10
2022-08-26T12:30:44.556Z,40.80
2022-08-26T12:33:21.897Z,41.00
2022-08-26T12:35:54.832Z,41.10
2022-08-26T12:38:24.634Z,41.40
2022-08-26T12:40:51.929Z,41.30
2022-08-26T12:43:37.466Z,40.70
2022-08-26T12:46:06.769Z,40.70
2022-08-26T12:48:36.396Z,39.20
2022-08-26T12:51:03.558Z,40.10
2022-08-26T12:53:32.789Z,39.90
2022-08-26T12:56:00.802Z,39.90
2022-08-26T12:58:29.195Z,38.90
2022-08-26T13:01:28.697Z,38.70
2022-08-26T13:03:56.484Z,38.40
2022-08-26T13:06:23.836Z,39.70
2022-08-26T13:09:14.902Z,39.10
2022-08-26T13:11:47.832Z,39.20
2022-08-26T13:14:21.242Z,39.60
2022-08-26T13:16:51.517Z,39.10
2022-08-26T13:19:22.628Z,39.10
2022-08-26T13:21:50.900Z,39.80
2022-08-26T13:24:19.959Z,40.80
2022-08-26T13:26:51.906Z,40.60
2022-08-26T13:29:18.944Z,41.60
2022-08-26T13:31:45.993Z,41.40
2022-08-26T13:34:14.413Z,40.70
2022-08-26T13:36:45.063Z,40.80
2022-08-26T13:39:12.555Z,40.60
2022-08-26T13:41:39.804Z,40.20
2022-08-26T13:44:07.190Z,39.90
2022-08-26T13:46:35.182Z,40.10
2022-08-26T13:49:03.915Z,40.30
2022-08-26T13:51:31.184Z,40.30
2022-08-26T13:53:59.083Z,40.60
2022-08-26T13:56:27.771Z,41.10
2022-08-26T13:58:55.499Z,41.70
2022-08-26T14:01:22.768Z,41.50
2022-08-26T14:03:49.851Z,42.20
2022-08-26T14:06:17.065Z,42.30
2022-08-26T14:08:44.407Z,42.10
2022-08-26T14:11:11.514Z,42.10
2022-08-26T14:13:40.618Z,42.20
2022-08-26T14:16:11.153Z,42.10
2022-08-26T14:18:42.550Z,41.60
2022-08-26T14:21:15.628Z,41.20
2022-08-26T14:23:44.011Z,41.30
2022-08-26T14:26:14.282Z,41.40
2022-08-26T14:28:55.532Z,41.40
2022-08-26T14:31:24.293Z,42.10
2022-08-26T14:33:51.675Z,41.80
2022-08-26T14:36:34.472Z,41.80
2022-08-26T14:39:10.517Z,42.00
2022-08-26T14:41:54.696Z,41.90
2022-08-26T14:44:23.069Z,41.90
2022-08-26T14:46:50.765Z,42.00
2022-08-26T14:49:18.473Z,42.00
2022-08-26T14:51:45.691Z,42.40
2022-08-26T14:54:13.186Z,42.80
2022-08-26T14:56:42.027Z,42.40
2022-08-26T14:59:09.201Z,42.20
2022-08-26T15:01:36.851Z,42.30
2022-08-26T15:04:04.055Z,42.30
2022-08-26T15:06:32.107Z,42.60
2022-08-26T15:08:59.879Z,42.00
2022-08-26T15:11:27.190Z,42.00
2022-08-26T15:13:54.515Z,42.10
2022-08-26T15:16:22.587Z,42.30
2022-08-26T15:18:54.803Z,43.20
2022-08-26T15:21:22.319Z,42.90
2022-08-26T15:23:49.439Z,42.10
2022-08-26T15:26:16.543Z,42.80
2022-08-26T15:28:43.603Z,43.50
2022-08-26T15:31:10.793Z,43.30
2022-08-26T15:33:38.070Z,43.90
2022-08-26T15:36:06.837Z,43.70
2022-08-26T15:38:34.767Z,43.60
2022-08-26T15:41:03.207Z,43.50
2022-08-26T15:43:30.511Z,43.70
2022-08-26T15:45:58.063Z,44.10
2022-08-26T15:48:25.193Z,44.00
2022-08-26T15:50:53.863Z,44.10
2022-08-26T15:53:23.003Z,44.20
2022-08-26T15:55:50.393Z,44.80
2022-08-26T15:58:17.519Z,45.30
2022-08-26T16:00:45.252Z,45.50
2022-08-26T16:03:12.402Z,45.00
2022-08-26T16:05:43.818Z,45.90
2022-08-26T16:08:11.122Z,46.30
2022-08-26T16:10:39.886Z,45.50
2022-08-26T16:13:08.449Z,45.70
2022-08-26T16:15:37.913Z,45.80
2022-08-26T16:18:06.237Z,46.00
2022-08-26T16:20:34.146Z,46.40
2022-08-26T16:23:01.701Z,46.60
2022-08-26T16:25:29.856Z,46.80
2022-08-26T16:27:58.744Z,47.00
2022-08-26T16:30:26.833Z,47.20
2022-08-26T16:32:55.763Z,47.40
2022-08-26T16:35:23.778Z,47.90
2022-08-26T16:37:51.033Z,47.90
2022-08-26T16:40:18.526Z,48.20
2022-08-26T16:42:45.878Z,48.50
2022-08-26T16:45:12.973Z,48.50
2022-08-26T16:47:40.766Z,48.50
2022-08-26T16:50:09.958Z,48.90
2022-08-26T16:52:39.788Z,49.50
2022-08-26T16:55:14.145Z,49.60
2022-08-26T16:57:42.074Z,50.10
2022-08-26T17:00:17.719Z,51.00
2022-08-26T17:02:47.562Z,51.50
2022-08-26T17:05:14.849Z,51.80
2022-08-26T17:07:41.829Z,52.10
2022-08-26T17:10:09.209Z,52.80
2022-08-26T17:12:36.618Z,53.20
2022-08-26T17:15:04.813Z,53.10
2022-08-26T17:17:31.779Z,53.30
2022-08-26T17:20:00.437Z,53.50
2022-08-26T17:22:31.517Z,53.50
2022-08-26T17:25:01.099Z,53.90
2022-08-26T17:27:28.149Z,54.30
2022-08-26T17:29:55.195Z,54.60
2022-08-26T17:32:24.292Z,54.80
2022-08-26T17:34:55.982Z,55.20
2022-08-26T17:37:23.095Z,55.50
2022-08-26T17:39:53.438Z,56.40
2022-08-26T17:42:20.410Z,56.70
2022-08-26T17:44:49.330Z,56.90
2022-08-26T17:47:16.980Z,57.20
2022-08-26T17:49:44.132Z,57.50
2022-08-26T17:52:11.643Z,57.30
2022-08-26T17:54:39.542Z,57.30
2022-08-26T17:57:06.565Z,57.20
2022-08-26T17:59:42.227Z,57.30
2022-08-26T18:02:09.910Z,57.70
2022-08-26T18:04:36.800Z,57.90
2022-08-26T18:07:04.047Z,58.50
2022-08-26T18:09:31.815Z,58.70
2022-08-26T18:11:59.232Z,58.80
2022-08-26T18:14:34.549Z,59.00
2022-08-26T18:17:05.499Z,59.20
2022-08-26T18:19:32.690Z,59.60
2022-08-26T18:21:59.811Z,59.60
2022-08-26T18:24:35.909Z,59.90
2022-08-26T18:27:03.013Z,60.10
2022-08-26T18:29:30.099Z,60.50
2022-08-26T18:31:58.159Z,60.60
2022-08-26T18:34:31.796Z,61.00
2022-08-26T18:36:59.207Z,61.20
2022-08-26T18:39:26.158Z,61.20
2022-08-26T18:41:53.510Z,61.50
2022-08-26T18:44:21.616Z,61.60
2022-08-26T18:46:49.803Z,61.70
2022-08-26T18:49:18.447Z,61.70
2022-08-26T18:51:45.526Z,61.70
2022-08-26T18:54:13.158Z,61.80
2022-08-26T18:56:40.606Z,62.00
2022-08-26T18:59:07.686Z,62.20
2022-08-26T19:01:35.567Z,62.60
2022-08-26T19:04:04.302Z,62.70
2022-08-26T19:06:33.077Z,62.80
2022-08-26T19:09:00.937Z,63.20
2022-08-26T19:11:32.401Z,63.00
2022-08-26T19:14:07.847Z,63.00
2022-08-26T19:16:34.953Z,63.20
2022-08-26T19:19:02.279Z,63.10
2022-08-26T19:21:29.400Z,63.40
2022-08-26T19:23:57.543Z,63.50
2022-08-26T19:26:24.938Z,63.80
2022-08-26T19:28:53.206Z,64.10
2022-08-26T19:31:20.273Z,64.50
2022-08-26T19:33:47.217Z,64.90
2022-08-26T19:36:22.231Z,65.10
2022-08-26T19:38:50.430Z,65.50
2022-08-26T19:41:20.895Z,65.80
2022-08-26T19:43:47.950Z,65.80
2022-08-26T19:46:17.465Z,65.70
2022-08-26T19:48:45.017Z,65.60
2022-08-26T19:51:15.858Z,65.40
2022-08-26T19:53:44.104Z,65.60
2022-08-26T19:56:11.525Z,65.50
2022-08-26T19:58:38.661Z,65.70
2022-08-26T20:01:06.123Z,65.50
2022-08-26T20:03:33.543Z,65.60
2022-08-26T20:06:00.764Z,65.80
2022-08-26T20:08:28.806Z,65.80
2022-08-26T20:10:57.908Z,65.50
2022-08-26T20:13:24.950Z,65.80
2022-08-26T20:15:51.938Z,66.10
2022-08-26T20:18:37.432Z,66.30
2022-08-26T20:21:23.162Z,66.50
2022-08-26T20:23:51.791Z,66.40
2022-08-26T20:26:18.862Z,66.40
2022-08-26T20:28:46.259Z,66.60
2022-08-26T20:31:15.103Z,66.70
2022-08-26T20:33:46.455Z,66.70
2022-08-26T20:36:17.206Z,66.90
2022-08-26T20:38:45.534Z,67.00
2022-08-26T20:41:12.741Z,67.00
2022-08-26T20:43:43.534Z,67.00
2022-08-26T20:46:18.042Z,67.10
2022-08-26T20:48:47.960Z,67.10
2022-08-26T20:51:15.515Z,67.10
2022-08-26T20:53:42.895Z,67.30
2022-08-26T20:56:12.837Z,67.50
2022-08-26T20:58:41.164Z,67.60
2022-08-26T21:01:09.175Z,67.60
2022-08-26T21:03:36.599Z,67.90
2022-08-26T21:06:03.941Z,68.10
2022-08-26T21:08:33.104Z,68.30
2022-08-26T21:11:00.780Z,68.40
2022-08-26T21:13:35.827Z,68.30
2022-08-26T21:16:10.407Z,68.20
2022-08-26T21:18:37.743Z,68.30
2022-08-26T21:21:05.349Z,68.50
2022-08-26T21:23:33.132Z,69.50
2022-08-26T21:26:08.275Z,70.00
2022-08-26T21:28:35.601Z,70.10
2022-08-26T21:31:03.983Z,70.10
2022-08-26T21:33:31.164Z,70.00
2022-08-26T21:35:58.151Z,70.00
2022-08-26T21:38:25.201Z,69.60
2022-08-26T21:41:24.407Z,69.70
2022-08-26T21:43:51.846Z,69.70
2022-08-26T21:46:19.660Z,69.50
2022-08-26T21:48:50.730Z,69.40
2022-08-26T21:51:18.824Z,69.60
2022-08-26T21:53:45.878Z,69.80
2022-08-26T21:56:13.375Z,69.80
2022-08-26T21:58:40.406Z,69.80
2022-08-26T22:01:14.334Z,69.70
2022-08-26T22:03:46.632Z,69.60
2022-08-26T22:06:18.058Z,69.70
2022-08-26T22:08:46.066Z,69.80
2022-08-26T22:11:13.526Z,69.70
2022-08-26T22:13:40.699Z,69.70
2022-08-26T22:16:07.922Z,69.60
2022-08-26T22:18:35.079Z,69.70
2022-08-26T22:21:09.822Z,69.70
2022-08-26T22:23:37.125Z,70.00
2022-08-26T22:26:04.795Z,70.10
2022-08-26T22:28:32.074Z,70.30
2022-08-26T22:30:59.110Z,70.50
2022-08-26T22:33:26.261Z,70.50
2022-08-26T22:35:53.486Z,70.70
2022-08-26T22:38:20.787Z,70.80
2022-08-26T22:40:49.731Z,71.00
2022-08-26T22:43:20.781Z,71.10
2022-08-26T22:45:48.180Z,71.20
2022-08-26T22:48:16.829Z,71.50
2022-08-26T22:50:44.195Z,71.50
2022-08-26T22:53:11.140Z,71.50
2022-08-26T22:55:38.191Z,72.10
2022-08-26T22:58:07.850Z,71.50
2022-08-26T23:00:35.000Z,71.50
2022-08-26T23:03:02.267Z,71.40
2022-08-26T23:05:29.874Z,71.30
2022-08-26T23:07:57.166Z,71.10
2022-08-26T23:10:24.494Z,71.20
2022-08-26T23:12:52.943Z,71.40
2022-08-26T23:15:20.299Z,71.30
2022-08-26T23:17:47.439Z,71.30
2022-08-26T23:20:24.077Z,71.50
2022-08-26T23:22:51.148Z,71.60
2022-08-26T23:25:18.332Z,71.60
2022-08-26T23:27:45.551Z,71.60
2022-08-26T23:30:15.732Z,71.60
2022-08-26T23:32:42.745Z,71.80
2022-08-26T23:35:10.121Z,72.00
2022-08-26T23:37:44.344Z,72.10
2022-08-26T23:40:17.366Z,72.10
2022-08-26T23:42:44.642Z,72.20
2022-08-26T23:45:13.035Z,72.30
2022-08-26T23:47:40.236Z,72.40
2022-08-26T23:50:07.486Z,72.40
2022-08-26T23:52:53.196Z,72.50
2022-08-26T23:55:20.166Z,72.60
2022-08-26T23:57:47.254Z,72.70
